sensor_id;sensor_type;location;lat;lon;timestamp;P1;durP1;ratioP1;P2;durP2;ratioP2
29030;SDS011;16122;50.236;11.734;2024-02-21T00:00:36;4.13;;;1.80;;
29030;SDS011;16122;50.236;11.734;2024-02-21T00:03:03;2.73;;;1.87;;
29030;SDS011;16122;50.236;11.734;2024-02-21T00:05:30;4.97;;;2.60;;
29030;SDS011;16122;50.236;11.734;2024-02-21T00:07:55;3.53;;;2.23;;
29030;SDS011;16122;50.236;11.734;2024-02-21T00:10:24;5.77;;;2.43;;
29030;SDS011;16122;50.236;11.734;2024-02-21T00:12:50;2.50;;;2.13;;
29030;SDS011;16122;50.236;11.734;2024-02-21T00:15:17;2.50;;;2.03;;
29030;SDS011;16122;50.236;11.734;2024-02-21T00:17:43;2.80;;;2.07;;
29030;SDS011;16122;50.236;11.734;2024-02-21T00:20:09;4.57;;;2.27;;
29030;SDS011;16122;50.236;11.734;2024-02-21T00:22:36;2.80;;;1.90;;
29030;SDS011;16122;50.236;11.734;2024-02-21T00:25:02;4.67;;;2.30;;
29030;SDS011;16122;50.236;11.734;2024-02-21T00:27:28;3.47;;;2.60;;
29030;SDS011;16122;50.236;11.734;2024-02-21T00:29:54;2.23;;;1.77;;
29030;SDS011;16122;50.236;11.734;2024-02-21T00:32:20;3.10;;;2.00;;
29030;SDS011;16122;50.236;11.734;2024-02-21T00:34:46;6.47;;;2.57;;
29030;SDS011;16122;50.236;11.734;2024-02-21T00:37:11;2.50;;;2.20;;
29030;SDS011;16122;50.236;11.734;2024-02-21T00:39:37;2.70;;;1.83;;
29030;SDS011;16122;50.236;11.734;2024-02-21T00:42:03;2.50;;;2.13;;
29030;SDS011;16122;50.236;11.734;2024-02-21T00:44:29;2.93;;;2.40;;
29030;SDS011;16122;50.236;11.734;2024-02-21T00:46:55;3.17;;;1.87;;
29030;SDS011;16122;50.236;11.734;2024-02-21T00:49:21;2.93;;;2.07;;
29030;SDS011;16122;50.236;11.734;2024-02-21T00:51:47;3.03;;;2.13;;
29030;SDS011;16122;50.236;11.734;2024-02-21T00:54:12;4.00;;;1.83;;
29030;SDS011;16122;50.236;11.734;2024-02-21T00:56:38;3.10;;;2.23;;
29030;SDS011;16122;50.236;11.734;2024-02-21T00:59:04;3.00;;;1.57;;
29030;SDS011;16122;50.236;11.734;2024-02-21T01:01:30;3.43;;;2.20;;
29030;SDS011;16122;50.236;11.734;2024-02-21T01:03:55;3.10;;;1.70;;
29030;SDS011;16122;50.236;11.734;2024-02-21T01:06:21;2.73;;;2.00;;
29030;SDS011;16122;50.236;11.734;2024-02-21T01:08:48;2.80;;;2.20;;
29030;SDS011;16122;50.236;11.734;2024-02-21T01:11:14;3.80;;;1.83;;
29030;SDS011;16122;50.236;11.734;2024-02-21T01:13:40;3.00;;;2.10;;
29030;SDS011;16122;50.236;11.734;2024-02-21T01:16:06;2.63;;;1.90;;
29030;SDS011;16122;50.236;11.734;2024-02-21T01:18:33;5.57;;;1.93;;
29030;SDS011;16122;50.236;11.734;2024-02-21T01:20:59;3.00;;;1.80;;
29030;SDS011;16122;50.236;11.734;2024-02-21T01:23:25;3.17;;;1.90;;
29030;SDS011;16122;50.236;11.734;2024-02-21T01:25:51;1.70;;;1.60;;
29030;SDS011;16122;50.236;11.734;2024-02-21T01:28:18;4.33;;;2.23;;
29030;SDS011;16122;50.236;11.734;2024-02-21T01:30:44;2.90;;;2.47;;
29030;SDS011;16122;50.236;11.734;2024-02-21T01:33:09;3.17;;;2.10;;
29030;SDS011;16122;50.236;11.734;2024-02-21T01:35:35;3.13;;;1.80;;
29030;SDS011;16122;50.236;11.734;2024-02-21T01:38:02;2.77;;;1.70;;
29030;SDS011;16122;50.236;11.734;2024-02-21T01:40:28;3.47;;;1.80;;
29030;SDS011;16122;50.236;11.734;2024-02-21T01:42:56;3.10;;;1.93;;
29030;SDS011;16122;50.236;11.734;2024-02-21T01:45:22;2.67;;;1.93;;
29030;SDS011;16122;50.236;11.734;2024-02-21T01:47:48;2.60;;;2.30;;
29030;SDS011;16122;50.236;11.734;2024-02-21T01:50:15;3.20;;;1.60;;
29030;SDS011;16122;50.236;11.734;2024-02-21T01:52:43;3.47;;;1.93;;
29030;SDS011;16122;50.236;11.734;2024-02-21T01:55:11;2.13;;;1.97;;
29030;SDS011;16122;50.236;11.734;2024-02-21T01:57:39;3.73;;;1.97;;
29030;SDS011;16122;50.236;11.734;2024-02-21T02:00:07;2.70;;;1.83;;
29030;SDS011;16122;50.236;11.734;2024-02-21T02:02:36;2.90;;;1.87;;
29030;SDS011;16122;50.236;11.734;2024-02-21T02:05:03;2.13;;;1.80;;
29030;SDS011;16122;50.236;11.734;2024-02-21T02:07:31;2.90;;;1.70;;
29030;SDS011;16122;50.236;11.734;2024-02-21T02:09:57;1.80;;;1.63;;
29030;SDS011;16122;50.236;11.734;2024-02-21T02:12:23;3.50;;;2.30;;
29030;SDS011;16122;50.236;11.734;2024-02-21T02:15:02;2.00;;;1.67;;
29030;SDS011;16122;50.236;11.734;2024-02-21T02:17:31;5.00;;;2.23;;
29030;SDS011;16122;50.236;11.734;2024-02-21T02:19:57;3.30;;;1.67;;
29030;SDS011;16122;50.236;11.734;2024-02-21T02:22:25;2.20;;;1.70;;
29030;SDS011;16122;50.236;11.734;2024-02-21T02:24:54;3.53;;;1.60;;
29030;SDS011;16122;50.236;11.734;2024-02-21T02:27:20;2.13;;;1.93;;
29030;SDS011;16122;50.236;11.734;2024-02-21T02:29:48;2.80;;;1.73;;
29030;SDS011;16122;50.236;11.734;2024-02-21T02:32:14;3.37;;;2.00;;
29030;SDS011;16122;50.236;11.734;2024-02-21T02:34:40;2.97;;;1.80;;
29030;SDS011;16122;50.236;11.734;2024-02-21T02:37:05;2.60;;;1.53;;
29030;SDS011;16122;50.236;11.734;2024-02-21T02:39:31;3.90;;;1.70;;
29030;SDS011;16122;50.236;11.734;2024-02-21T02:41:57;2.00;;;1.80;;
29030;SDS011;16122;50.236;11.734;2024-02-21T02:44:23;2.47;;;1.70;;
29030;SDS011;16122;50.236;11.734;2024-02-21T02:46:49;2.10;;;1.67;;
29030;SDS011;16122;50.236;11.734;2024-02-21T02:49:15;2.57;;;1.97;;
29030;SDS011;16122;50.236;11.734;2024-02-21T02:51:41;2.67;;;1.97;;
29030;SDS011;16122;50.236;11.734;2024-02-21T02:54:08;2.10;;;1.90;;
29030;SDS011;16122;50.236;11.734;2024-02-21T02:56:34;1.70;;;1.60;;
29030;SDS011;16122;50.236;11.734;2024-02-21T02:59:00;2.77;;;1.53;;
29030;SDS011;16122;50.236;11.734;2024-02-21T03:01:26;4.10;;;1.90;;
29030;SDS011;16122;50.236;11.734;2024-02-21T03:03:52;2.13;;;1.70;;
29030;SDS011;16122;50.236;11.734;2024-02-21T03:06:19;2.67;;;2.10;;
29030;SDS011;16122;50.236;11.734;2024-02-21T03:08:45;3.03;;;1.60;;
29030;SDS011;16122;50.236;11.734;2024-02-21T03:11:11;1.53;;;1.30;;
29030;SDS011;16122;50.236;11.734;2024-02-21T03:13:38;1.83;;;1.50;;
29030;SDS011;16122;50.236;11.734;2024-02-21T03:16:04;2.07;;;1.50;;
29030;SDS011;16122;50.236;11.734;2024-02-21T03:18:30;2.60;;;2.20;;
29030;SDS011;16122;50.236;11.734;2024-02-21T03:20:56;3.20;;;1.50;;
29030;SDS011;16122;50.236;11.734;2024-02-21T03:23:22;2.70;;;1.83;;
29030;SDS011;16122;50.236;11.734;2024-02-21T03:25:48;2.73;;;1.97;;
29030;SDS011;16122;50.236;11.734;2024-02-21T03:28:14;1.50;;;1.40;;
29030;SDS011;16122;50.236;11.734;2024-02-21T03:30:41;2.10;;;1.30;;
29030;SDS011;16122;50.236;11.734;2024-02-21T03:33:07;1.70;;;1.60;;
29030;SDS011;16122;50.236;11.734;2024-02-21T03:35:33;2.40;;;1.40;;
29030;SDS011;16122;50.236;11.734;2024-02-21T03:37:59;2.83;;;1.50;;
29030;SDS011;16122;50.236;11.734;2024-02-21T03:40:25;2.70;;;1.60;;
29030;SDS011;16122;50.236;11.734;2024-02-21T03:42:51;2.87;;;1.40;;
29030;SDS011;16122;50.236;11.734;2024-02-21T03:45:17;2.50;;;1.47;;
29030;SDS011;16122;50.236;11.734;2024-02-21T03:47:42;3.50;;;1.80;;
29030;SDS011;16122;50.236;11.734;2024-02-21T03:50:08;2.23;;;1.80;;
29030;SDS011;16122;50.236;11.734;2024-02-21T03:52:34;2.80;;;1.60;;
29030;SDS011;16122;50.236;11.734;2024-02-21T03:55:00;3.37;;;1.63;;
29030;SDS011;16122;50.236;11.734;2024-02-21T03:57:26;5.17;;;2.20;;
29030;SDS011;16122;50.236;11.734;2024-02-21T03:59:51;3.20;;;1.80;;
29030;SDS011;16122;50.236;11.734;2024-02-21T04:02:17;2.60;;;2.27;;
29030;SDS011;16122;50.236;11.734;2024-02-21T04:04:43;2.73;;;1.93;;
29030;SDS011;16122;50.236;11.734;2024-02-21T04:07:12;2.10;;;1.37;;
29030;SDS011;16122;50.236;11.734;2024-02-21T04:09:41;2.77;;;1.70;;
29030;SDS011;16122;50.236;11.734;2024-02-21T04:12:07;1.90;;;1.37;;
29030;SDS011;16122;50.236;11.734;2024-02-21T04:14:33;1.67;;;1.57;;
29030;SDS011;16122;50.236;11.734;2024-02-21T04:17:01;3.73;;;1.90;;
29030;SDS011;16122;50.236;11.734;2024-02-21T04:19:27;2.10;;;1.67;;
29030;SDS011;16122;50.236;11.734;2024-02-21T04:21:52;3.10;;;1.90;;
29030;SDS011;16122;50.236;11.734;2024-02-21T04:24:18;1.80;;;1.50;;
29030;SDS011;16122;50.236;11.734;2024-02-21T04:26:44;3.37;;;1.80;;
29030;SDS011;16122;50.236;11.734;2024-02-21T04:29:10;2.40;;;1.50;;
29030;SDS011;16122;50.236;11.734;2024-02-21T04:31:36;4.30;;;1.53;;
29030;SDS011;16122;50.236;11.734;2024-02-21T04:34:02;2.13;;;1.63;;
29030;SDS011;16122;50.236;11.734;2024-02-21T04:36:28;2.30;;;1.60;;
29030;SDS011;16122;50.236;11.734;2024-02-21T04:38:53;1.87;;;1.50;;
29030;SDS011;16122;50.236;11.734;2024-02-21T04:41:19;1.60;;;1.50;;
29030;SDS011;16122;50.236;11.734;2024-02-21T04:43:46;2.50;;;1.37;;
29030;SDS011;16122;50.236;11.734;2024-02-21T04:46:13;2.27;;;1.93;;
29030;SDS011;16122;50.236;11.734;2024-02-21T04:48:39;2.80;;;2.03;;
29030;SDS011;16122;50.236;11.734;2024-02-21T04:51:04;2.10;;;1.53;;
29030;SDS011;16122;50.236;11.734;2024-02-21T04:53:30;2.13;;;1.80;;
29030;SDS011;16122;50.236;11.734;2024-02-21T04:55:56;2.03;;;1.70;;
29030;SDS011;16122;50.236;11.734;2024-02-21T04:58:22;3.23;;;2.07;;
29030;SDS011;16122;50.236;11.734;2024-02-21T05:00:48;2.37;;;1.50;;
29030;SDS011;16122;50.236;11.734;2024-02-21T05:03:13;5.33;;;1.93;;
29030;SDS011;16122;50.236;11.734;2024-02-21T05:05:39;5.60;;;1.70;;
29030;SDS011;16122;50.236;11.734;2024-02-21T05:08:05;2.03;;;1.80;;
29030;SDS011;16122;50.236;11.734;2024-02-21T05:10:31;2.90;;;1.77;;
29030;SDS011;16122;50.236;11.734;2024-02-21T05:12:57;1.93;;;1.83;;
29030;SDS011;16122;50.236;11.734;2024-02-21T05:15:23;3.60;;;2.03;;
29030;SDS011;16122;50.236;11.734;2024-02-21T05:17:49;1.50;;;1.40;;
29030;SDS011;16122;50.236;11.734;2024-02-21T05:20:15;3.43;;;2.10;;
29030;SDS011;16122;50.236;11.734;2024-02-21T05:22:40;3.33;;;1.63;;
29030;SDS011;16122;50.236;11.734;2024-02-21T05:25:07;4.60;;;1.97;;
29030;SDS011;16122;50.236;11.734;2024-02-21T05:27:33;6.60;;;2.17;;
29030;SDS011;16122;50.236;11.734;2024-02-21T05:30:00;2.80;;;1.97;;
29030;SDS011;16122;50.236;11.734;2024-02-21T05:32:26;2.90;;;1.83;;
29030;SDS011;16122;50.236;11.734;2024-02-21T05:34:51;3.47;;;2.00;;
29030;SDS011;16122;50.236;11.734;2024-02-21T05:37:17;2.63;;;1.90;;
29030;SDS011;16122;50.236;11.734;2024-02-21T05:39:43;3.93;;;2.17;;
29030;SDS011;16122;50.236;11.734;2024-02-21T05:42:09;4.20;;;1.90;;
29030;SDS011;16122;50.236;11.734;2024-02-21T05:44:35;4.83;;;1.90;;
29030;SDS011;16122;50.236;11.734;2024-02-21T05:47:01;3.20;;;2.00;;
29030;SDS011;16122;50.236;11.734;2024-02-21T05:49:27;5.47;;;1.90;;
29030;SDS011;16122;50.236;11.734;2024-02-21T05:51:52;3.13;;;1.90;;
29030;SDS011;16122;50.236;11.734;2024-02-21T05:54:18;1.97;;;1.77;;
29030;SDS011;16122;50.236;11.734;2024-02-21T05:56:47;2.40;;;2.00;;
29030;SDS011;16122;50.236;11.734;2024-02-21T05:59:12;2.00;;;1.50;;
29030;SDS011;16122;50.236;11.734;2024-02-21T06:01:38;3.50;;;1.67;;
29030;SDS011;16122;50.236;11.734;2024-02-21T06:04:04;3.60;;;2.17;;
29030;SDS011;16122;50.236;11.734;2024-02-21T06:06:30;5.10;;;2.00;;
29030;SDS011;16122;50.236;11.734;2024-02-21T06:08:57;2.93;;;2.07;;
29030;SDS011;16122;50.236;11.734;2024-02-21T06:11:24;2.70;;;2.30;;
29030;SDS011;16122;50.236;11.734;2024-02-21T06:13:49;8.73;;;1.70;;
29030;SDS011;16122;50.236;11.734;2024-02-21T06:16:15;2.53;;;1.50;;
29030;SDS011;16122;50.236;11.734;2024-02-21T06:18:41;5.70;;;1.97;;
29030;SDS011;16122;50.236;11.734;2024-02-21T06:21:07;2.93;;;1.70;;
29030;SDS011;16122;50.236;11.734;2024-02-21T06:23:33;2.33;;;1.70;;
29030;SDS011;16122;50.236;11.734;2024-02-21T06:25:59;3.73;;;1.97;;
29030;SDS011;16122;50.236;11.734;2024-02-21T06:28:24;4.30;;;1.90;;
29030;SDS011;16122;50.236;11.734;2024-02-21T06:30:50;3.10;;;2.00;;
29030;SDS011;16122;50.236;11.734;2024-02-21T06:33:16;2.63;;;2.17;;
29030;SDS011;16122;50.236;11.734;2024-02-21T06:35:42;6.33;;;1.83;;
29030;SDS011;16122;50.236;11.734;2024-02-21T06:38:08;7.07;;;2.70;;
29030;SDS011;16122;50.236;11.734;2024-02-21T06:40:33;7.43;;;3.40;;
29030;SDS011;16122;50.236;11.734;2024-02-21T06:43:04;6.90;;;2.53;;
29030;SDS011;16122;50.236;11.734;2024-02-21T06:45:30;6.50;;;3.30;;
29030;SDS011;16122;50.236;11.734;2024-02-21T06:47:56;7.67;;;2.40;;
29030;SDS011;16122;50.236;11.734;2024-02-21T06:50:22;5.40;;;2.47;;
29030;SDS011;16122;50.236;11.734;2024-02-21T06:52:47;4.73;;;2.43;;
29030;SDS011;16122;50.236;11.734;2024-02-21T06:55:13;4.07;;;2.43;;
29030;SDS011;16122;50.236;11.734;2024-02-21T06:57:39;9.63;;;2.77;;
29030;SDS011;16122;50.236;11.734;2024-02-21T07:00:05;4.90;;;2.40;;
29030;SDS011;16122;50.236;11.734;2024-02-21T07:02:33;5.90;;;2.10;;
29030;SDS011;16122;50.236;11.734;2024-02-21T07:04:59;5.87;;;2.50;;
29030;SDS011;16122;50.236;11.734;2024-02-21T07:07:25;3.30;;;1.93;;
29030;SDS011;16122;50.236;11.734;2024-02-21T07:09:51;3.30;;;1.93;;
29030;SDS011;16122;50.236;11.734;2024-02-21T07:12:18;6.93;;;2.27;;
29030;SDS011;16122;50.236;11.734;2024-02-21T07:14:44;5.53;;;2.30;;
29030;SDS011;16122;50.236;11.734;2024-02-21T07:17:10;4.63;;;2.60;;
29030;SDS011;16122;50.236;11.734;2024-02-21T07:19:36;5.43;;;2.00;;
29030;SDS011;16122;50.236;11.734;2024-02-21T07:22:02;4.00;;;2.60;;
29030;SDS011;16122;50.236;11.734;2024-02-21T07:24:28;3.77;;;2.17;;
29030;SDS011;16122;50.236;11.734;2024-02-21T07:26:53;3.20;;;2.20;;
29030;SDS011;16122;50.236;11.734;2024-02-21T07:29:19;6.60;;;2.40;;
29030;SDS011;16122;50.236;11.734;2024-02-21T07:31:45;4.47;;;2.40;;
29030;SDS011;16122;50.236;11.734;2024-02-21T07:34:11;6.70;;;2.23;;
29030;SDS011;16122;50.236;11.734;2024-02-21T07:36:37;5.23;;;2.80;;
29030;SDS011;16122;50.236;11.734;2024-02-21T07:39:04;5.13;;;2.70;;
29030;SDS011;16122;50.236;11.734;2024-02-21T07:41:30;5.90;;;2.87;;
29030;SDS011;16122;50.236;11.734;2024-02-21T07:43:56;4.80;;;1.90;;
29030;SDS011;16122;50.236;11.734;2024-02-21T07:46:22;3.70;;;2.03;;
29030;SDS011;16122;50.236;11.734;2024-02-21T07:48:48;5.30;;;2.50;;
29030;SDS011;16122;50.236;11.734;2024-02-21T07:51:14;3.10;;;2.23;;
29030;SDS011;16122;50.236;11.734;2024-02-21T07:53:43;5.70;;;2.50;;
29030;SDS011;16122;50.236;11.734;2024-02-21T07:56:11;4.50;;;2.50;;
29030;SDS011;16122;50.236;11.734;2024-02-21T07:58:37;3.67;;;2.50;;
29030;SDS011;16122;50.236;11.734;2024-02-21T08:01:03;4.63;;;2.43;;
29030;SDS011;16122;50.236;11.734;2024-02-21T08:03:28;7.43;;;2.50;;
29030;SDS011;16122;50.236;11.734;2024-02-21T08:05:54;5.20;;;2.17;;
29030;SDS011;16122;50.236;11.734;2024-02-21T08:08:20;3.67;;;1.90;;
29030;SDS011;16122;50.236;11.734;2024-02-21T08:10:50;4.50;;;2.03;;
29030;SDS011;16122;50.236;11.734;2024-02-21T08:13:16;3.20;;;1.93;;
29030;SDS011;16122;50.236;11.734;2024-02-21T08:15:41;5.90;;;2.70;;
29030;SDS011;16122;50.236;11.734;2024-02-21T08:18:08;3.23;;;1.70;;
29030;SDS011;16122;50.236;11.734;2024-02-21T08:20:34;4.67;;;2.20;;
29030;SDS011;16122;50.236;11.734;2024-02-21T08:23:00;3.67;;;2.20;;
29030;SDS011;16122;50.236;11.734;2024-02-21T08:25:26;5.43;;;2.07;;
29030;SDS011;16122;50.236;11.734;2024-02-21T08:27:54;5.57;;;2.33;;
29030;SDS011;16122;50.236;11.734;2024-02-21T08:30:22;4.10;;;2.23;;
29030;SDS011;16122;50.236;11.734;2024-02-21T08:32:48;3.80;;;2.30;;
29030;SDS011;16122;50.236;11.734;2024-02-21T08:35:14;3.63;;;1.80;;
29030;SDS011;16122;50.236;11.734;2024-02-21T08:37:40;5.00;;;2.20;;
29030;SDS011;16122;50.236;11.734;2024-02-21T08:40:05;2.43;;;1.67;;
29030;SDS011;16122;50.236;11.734;2024-02-21T08:42:34;4.20;;;2.23;;
29030;SDS011;16122;50.236;11.734;2024-02-21T08:45:02;6.90;;;2.10;;
29030;SDS011;16122;50.236;11.734;2024-02-21T08:47:28;2.40;;;2.00;;
29030;SDS011;16122;50.236;11.734;2024-02-21T08:49:54;5.53;;;2.30;;
29030;SDS011;16122;50.236;11.734;2024-02-21T08:52:20;5.20;;;2.50;;
29030;SDS011;16122;50.236;11.734;2024-02-21T08:54:45;3.87;;;2.30;;
29030;SDS011;16122;50.236;11.734;2024-02-21T08:57:11;6.77;;;1.83;;
29030;SDS011;16122;50.236;11.734;2024-02-21T08:59:39;4.10;;;2.80;;
29030;SDS011;16122;50.236;11.734;2024-02-21T09:02:05;4.70;;;1.80;;
29030;SDS011;16122;50.236;11.734;2024-02-21T09:04:32;5.60;;;2.10;;
29030;SDS011;16122;50.236;11.734;2024-02-21T09:06:58;2.30;;;1.90;;
29030;SDS011;16122;50.236;11.734;2024-02-21T09:09:24;4.63;;;2.17;;
29030;SDS011;16122;50.236;11.734;2024-02-21T09:11:50;3.27;;;2.07;;
29030;SDS011;16122;50.236;11.734;2024-02-21T09:14:17;4.30;;;1.70;;
29030;SDS011;16122;50.236;11.734;2024-02-21T09:16:43;3.97;;;2.00;;
29030;SDS011;16122;50.236;11.734;2024-02-21T09:19:09;2.30;;;1.80;;
29030;SDS011;16122;50.236;11.734;2024-02-21T09:21:39;2.10;;;1.70;;
29030;SDS011;16122;50.236;11.734;2024-02-21T09:24:05;6.87;;;1.77;;
29030;SDS011;16122;50.236;11.734;2024-02-21T09:26:31;4.10;;;1.70;;
29030;SDS011;16122;50.236;11.734;2024-02-21T09:28:57;3.60;;;2.00;;
29030;SDS011;16122;50.236;11.734;2024-02-21T09:31:23;2.97;;;1.60;;
29030;SDS011;16122;50.236;11.734;2024-02-21T09:33:48;2.13;;;1.40;;
29030;SDS011;16122;50.236;11.734;2024-02-21T09:36:14;2.27;;;1.67;;
29030;SDS011;16122;50.236;11.734;2024-02-21T09:38:40;2.53;;;1.50;;
29030;SDS011;16122;50.236;11.734;2024-02-21T09:41:25;2.77;;;2.53;;
29030;SDS011;16122;50.236;11.734;2024-02-21T09:43:55;4.53;;;2.10;;
29030;SDS011;16122;50.236;11.734;2024-02-21T09:52:01;4.10;;;2.00;;
29030;SDS011;16122;50.236;11.734;2024-02-21T09:54:29;2.50;;;1.50;;
29030;SDS011;16122;50.236;11.734;2024-02-21T09:56:56;3.33;;;1.90;;
29030;SDS011;16122;50.236;11.734;2024-02-21T09:59:22;4.73;;;1.60;;
29030;SDS011;16122;50.236;11.734;2024-02-21T10:01:49;2.20;;;1.47;;
29030;SDS011;16122;50.236;11.734;2024-02-21T10:04:16;2.83;;;1.90;;
29030;SDS011;16122;50.236;11.734;2024-02-21T10:06:43;3.43;;;2.00;;
29030;SDS011;16122;50.236;11.734;2024-02-21T10:09:19;2.30;;;2.10;;
29030;SDS011;16122;50.236;11.734;2024-02-21T10:11:49;4.43;;;2.20;;
29030;SDS011;16122;50.236;11.734;2024-02-21T10:14:16;2.20;;;1.90;;
29030;SDS011;16122;50.236;11.734;2024-02-21T10:16:43;1.73;;;1.57;;
29030;SDS011;16122;50.236;11.734;2024-02-21T10:19:19;29.20;;;7.73;;
29030;SDS011;16122;50.236;11.734;2024-02-21T10:24:33;120.47;;;29.20;;
29030;SDS011;16122;50.236;11.734;2024-02-21T10:27:01;118.30;;;28.73;;
29030;SDS011;16122;50.236;11.734;2024-02-21T10:29:28;133.17;;;31.90;;
29030;SDS011;16122;50.236;11.734;2024-02-21T10:34:37;100.60;;;26.27;;
29030;SDS011;16122;50.236;11.734;2024-02-21T10:37:05;105.30;;;26.57;;
29030;SDS011;16122;50.236;11.734;2024-02-21T10:39:32;87.63;;;23.80;;
29030;SDS011;16122;50.236;11.734;2024-02-21T10:42:00;70.70;;;24.07;;
29030;SDS011;16122;50.236;11.734;2024-02-21T10:44:35;65.40;;;21.37;;
29030;SDS011;16122;50.236;11.734;2024-02-21T10:47:09;80.17;;;22.00;;
29030;SDS011;16122;50.236;11.734;2024-02-21T10:49:41;75.77;;;20.07;;
29030;SDS011;16122;50.236;11.734;2024-02-21T10:55:09;62.37;;;18.90;;
29030;SDS011;16122;50.236;11.734;2024-02-21T10:57:39;63.73;;;16.47;;
29030;SDS011;16122;50.236;11.734;2024-02-21T11:00:06;65.63;;;17.23;;
29030;SDS011;16122;50.236;11.734;2024-02-21T11:02:35;58.20;;;17.37;;
29030;SDS011;16122;50.236;11.734;2024-02-21T11:05:02;49.47;;;17.20;;
29030;SDS011;16122;50.236;11.734;2024-02-21T11:07:30;52.80;;;17.13;;
29030;SDS011;16122;50.236;11.734;2024-02-21T11:09:57;42.70;;;15.27;;
29030;SDS011;16122;50.236;11.734;2024-02-21T11:12:24;50.47;;;16.10;;
29030;SDS011;16122;50.236;11.734;2024-02-21T11:14:51;41.57;;;14.13;;
29030;SDS011;16122;50.236;11.734;2024-02-21T11:17:20;44.17;;;13.57;;
29030;SDS011;16122;50.236;11.734;2024-02-21T11:19:47;43.43;;;13.90;;
29030;SDS011;16122;50.236;11.734;2024-02-21T11:22:17;40.23;;;13.70;;
29030;SDS011;16122;50.236;11.734;2024-02-21T11:24:44;35.77;;;11.47;;
29030;SDS011;16122;50.236;11.734;2024-02-21T11:29:47;37.37;;;11.80;;
29030;SDS011;16122;50.236;11.734;2024-02-21T11:32:19;38.20;;;12.13;;
29030;SDS011;16122;50.236;11.734;2024-02-21T11:37:29;34.53;;;11.50;;
29030;SDS011;16122;50.236;11.734;2024-02-21T11:39:58;46.27;;;12.20;;
29030;SDS011;16122;50.236;11.734;2024-02-21T11:42:28;34.17;;;12.20;;
29030;SDS011;16122;50.236;11.734;2024-02-21T11:44:56;29.77;;;11.00;;
29030;SDS011;16122;50.236;11.734;2024-02-21T11:47:22;39.13;;;11.10;;
29030;SDS011;16122;50.236;11.734;2024-02-21T11:49:48;26.00;;;10.07;;
29030;SDS011;16122;50.236;11.734;2024-02-21T11:52:19;25.77;;;10.13;;
29030;SDS011;16122;50.236;11.734;2024-02-21T11:54:50;27.60;;;8.67;;
29030;SDS011;16122;50.236;11.734;2024-02-21T11:57:17;32.33;;;9.67;;
29030;SDS011;16122;50.236;11.734;2024-02-21T11:59:44;30.27;;;9.93;;
29030;SDS011;16122;50.236;11.734;2024-02-21T12:02:11;27.57;;;9.50;;
29030;SDS011;16122;50.236;11.734;2024-02-21T12:04:38;24.83;;;8.73;;
29030;SDS011;16122;50.236;11.734;2024-02-21T12:07:04;24.40;;;9.07;;
29030;SDS011;16122;50.236;11.734;2024-02-21T12:09:30;26.00;;;9.13;;
29030;SDS011;16122;50.236;11.734;2024-02-21T12:12:03;25.80;;;9.07;;
29030;SDS011;16122;50.236;11.734;2024-02-21T12:14:30;27.10;;;8.50;;
29030;SDS011;16122;50.236;11.734;2024-02-21T12:16:58;19.20;;;7.43;;
29030;SDS011;16122;50.236;11.734;2024-02-21T12:19:24;27.40;;;9.27;;
29030;SDS011;16122;50.236;11.734;2024-02-21T12:21:50;22.67;;;7.80;;
29030;SDS011;16122;50.236;11.734;2024-02-21T12:24:21;28.20;;;8.47;;
29030;SDS011;16122;50.236;11.734;2024-02-21T12:26:48;24.70;;;8.10;;
29030;SDS011;16122;50.236;11.734;2024-02-21T12:29:18;19.70;;;6.77;;
29030;SDS011;16122;50.236;11.734;2024-02-21T12:31:48;23.07;;;7.60;;
29030;SDS011;16122;50.236;11.734;2024-02-21T12:34:14;17.10;;;7.40;;
29030;SDS011;16122;50.236;11.734;2024-02-21T12:36:44;21.83;;;7.57;;
29030;SDS011;16122;50.236;11.734;2024-02-21T12:39:12;23.57;;;6.93;;
29030;SDS011;16122;50.236;11.734;2024-02-21T12:41:39;20.53;;;7.70;;
29030;SDS011;16122;50.236;11.734;2024-02-21T12:44:08;21.87;;;8.43;;
29030;SDS011;16122;50.236;11.734;2024-02-21T12:46:34;16.20;;;7.00;;
29030;SDS011;16122;50.236;11.734;2024-02-21T12:49:01;18.97;;;7.03;;
29030;SDS011;16122;50.236;11.734;2024-02-21T12:51:28;18.50;;;7.77;;
29030;SDS011;16122;50.236;11.734;2024-02-21T12:53:57;21.20;;;6.90;;
29030;SDS011;16122;50.236;11.734;2024-02-21T12:56:23;22.23;;;7.67;;
29030;SDS011;16122;50.236;11.734;2024-02-21T12:58:49;16.80;;;6.13;;
29030;SDS011;16122;50.236;11.734;2024-02-21T13:01:16;24.07;;;8.80;;
29030;SDS011;16122;50.236;11.734;2024-02-21T13:03:42;17.87;;;6.87;;
29030;SDS011;16122;50.236;11.734;2024-02-21T13:06:08;13.83;;;6.50;;
29030;SDS011;16122;50.236;11.734;2024-02-21T13:08:36;14.80;;;6.87;;
29030;SDS011;16122;50.236;11.734;2024-02-21T13:11:02;16.37;;;5.90;;
29030;SDS011;16122;50.236;11.734;2024-02-21T13:13:29;13.73;;;7.17;;
29030;SDS011;16122;50.236;11.734;2024-02-21T13:15:55;17.93;;;5.67;;
29030;SDS011;16122;50.236;11.734;2024-02-21T13:18:20;22.63;;;6.87;;
29030;SDS011;16122;50.236;11.734;2024-02-21T13:20:47;14.50;;;7.00;;
29030;SDS011;16122;50.236;11.734;2024-02-21T13:23:13;14.53;;;6.30;;
29030;SDS011;16122;50.236;11.734;2024-02-21T13:25:39;14.33;;;6.10;;
29030;SDS011;16122;50.236;11.734;2024-02-21T13:28:05;17.67;;;6.67;;
29030;SDS011;16122;50.236;11.734;2024-02-21T13:30:30;18.47;;;6.70;;
29030;SDS011;16122;50.236;11.734;2024-02-21T13:32:56;14.53;;;6.10;;
29030;SDS011;16122;50.236;11.734;2024-02-21T13:35:22;9.30;;;5.60;;
29030;SDS011;16122;50.236;11.734;2024-02-21T13:37:48;15.30;;;6.23;;
29030;SDS011;16122;50.236;11.734;2024-02-21T13:40:15;17.60;;;6.27;;
29030;SDS011;16122;50.236;11.734;2024-02-21T13:42:41;13.17;;;6.30;;
29030;SDS011;16122;50.236;11.734;2024-02-21T13:45:08;16.70;;;6.10;;
29030;SDS011;16122;50.236;11.734;2024-02-21T13:47:36;14.63;;;5.37;;
29030;SDS011;16122;50.236;11.734;2024-02-21T13:50:02;18.53;;;5.90;;
29030;SDS011;16122;50.236;11.734;2024-02-21T13:52:39;15.97;;;6.37;;
29030;SDS011;16122;50.236;11.734;2024-02-21T13:55:05;16.40;;;6.40;;
29030;SDS011;16122;50.236;11.734;2024-02-21T13:57:34;11.23;;;5.37;;
29030;SDS011;16122;50.236;11.734;2024-02-21T14:00:01;17.23;;;5.87;;
29030;SDS011;16122;50.236;11.734;2024-02-21T14:02:37;12.70;;;5.60;;
29030;SDS011;16122;50.236;11.734;2024-02-21T14:05:04;15.20;;;5.70;;
29030;SDS011;16122;50.236;11.734;2024-02-21T14:07:31;10.17;;;5.20;;
29030;SDS011;16122;50.236;11.734;2024-02-21T14:09:58;15.97;;;5.23;;
29030;SDS011;16122;50.236;11.734;2024-02-21T14:12:24;17.10;;;6.60;;
29030;SDS011;16122;50.236;11.734;2024-02-21T14:14:50;8.50;;;5.07;;
29030;SDS011;16122;50.236;11.734;2024-02-21T14:17:17;12.97;;;5.60;;
29030;SDS011;16122;50.236;11.734;2024-02-21T14:19:44;11.10;;;5.90;;
29030;SDS011;16122;50.236;11.734;2024-02-21T14:22:10;13.10;;;5.33;;
29030;SDS011;16122;50.236;11.734;2024-02-21T14:24:36;10.70;;;5.13;;
29030;SDS011;16122;50.236;11.734;2024-02-21T14:27:02;10.40;;;5.03;;
29030;SDS011;16122;50.236;11.734;2024-02-21T14:29:28;10.90;;;5.90;;
29030;SDS011;16122;50.236;11.734;2024-02-21T14:31:54;13.90;;;5.10;;
29030;SDS011;16122;50.236;11.734;2024-02-21T14:34:20;12.23;;;5.70;;
29030;SDS011;16122;50.236;11.734;2024-02-21T14:36:46;9.97;;;6.00;;
29030;SDS011;16122;50.236;11.734;2024-02-21T14:39:12;12.93;;;5.27;;
29030;SDS011;16122;50.236;11.734;2024-02-21T14:41:37;11.83;;;4.97;;
29030;SDS011;16122;50.236;11.734;2024-02-21T14:44:04;11.00;;;4.57;;